createdAt,value
2022-10-13T00:00:51.992Z,62.05
2022-10-13T00:02:53.844Z,62.65
2022-10-13T00:04:55.792Z,63.07
2022-10-13T00:06:57.463Z,63.20
2022-10-13T00:08:59.485Z,63.44
2022-10-13T00:11:01.424Z,62.83
2022-10-13T00:13:03.106Z,62.88
2022-10-13T00:15:07.211Z,63.28
2022-10-13T00:17:09.173Z,63.32
2022-10-13T00:19:14.980Z,63.50
2022-10-13T00:21:20.233Z,63.39
2022-10-13T00:23:22.125Z,63.32
2022-10-13T00:25:23.725Z,63.58
2022-10-13T00:27:25.368Z,63.68
2022-10-13T00:29:27.039Z,63.84
2022-10-13T00:31:30.817Z,64.25
2022-10-13T00:33:32.486Z,63.84
2022-10-13T00:35:34.531Z,64.10
2022-10-13T00:37:36.211Z,63.84
2022-10-13T00:39:37.832Z,63.86
2022-10-13T00:41:39.608Z,63.93
2022-10-13T00:43:52.305Z,64.12
2022-10-13T00:45:54.425Z,63.51
2022-10-13T00:48:01.180Z,63.60
2022-10-13T00:50:04.825Z,63.25
2022-10-13T00:52:06.625Z,63.67
2022-10-13T00:54:10.390Z,63.14
2022-10-13T00:56:12.135Z,63.42
2022-10-13T00:58:19.675Z,63.06
2022-10-13T01:00:25.129Z,63.17
2022-10-13T01:02:30.877Z,63.02
2022-10-13T01:04:35.059Z,63.21
2022-10-13T01:06:36.772Z,63.23
2022-10-13T01:08:38.541Z,63.50
2022-10-13T01:11:00.765Z,63.16
2022-10-13T01:13:35.145Z,63.17
2022-10-13T01:15:38.724Z,63.21
2022-10-13T01:17:58.572Z,63.20
2022-10-13T01:20:18.467Z,63.17
2022-10-13T01:22:44.745Z,63.55
2022-10-13T01:25:10.712Z,63.50
2022-10-13T01:27:18.733Z,63.75
2022-10-13T01:29:51.311Z,63.99
2022-10-13T01:32:16.249Z,63.83
2022-10-13T01:34:29.746Z,64.01
2022-10-13T01:36:35.678Z,64.36
2022-10-13T01:38:45.704Z,64.54
2022-10-13T01:41:05.800Z,64.36
2022-10-13T01:43:25.641Z,64.47
2022-10-13T01:45:32.273Z,64.23
2022-10-13T01:47:34.521Z,64.23
2022-10-13T01:49:36.351Z,64.16
2022-10-13T01:51:38.943Z,64.61
2022-10-13T01:53:41.466Z,64.89
2022-10-13T01:55:57.639Z,64.71
2022-10-13T01:57:59.315Z,65.08
2022-10-13T02:00:18.914Z,65.15
2022-10-13T02:02:28.964Z,65.27
2022-10-13T02:04:54.056Z,65.25
2022-10-13T02:07:00.409Z,65.01
2022-10-13T02:09:06.493Z,65.19
2022-10-13T02:11:16.791Z,65.50
2022-10-13T02:13:22.256Z,65.55
2022-10-13T02:15:28.848Z,65.35
2022-10-13T02:17:30.942Z,66.26
2022-10-13T02:19:37.457Z,66.04
2022-10-13T02:21:39.493Z,66.53
2022-10-13T02:23:43.086Z,67.27
2022-10-13T02:25:45.269Z,67.89
2022-10-13T02:27:46.879Z,68.19
2022-10-13T02:29:50.810Z,67.88
2022-10-13T02:31:54.984Z,67.89
2022-10-13T02:33:56.546Z,68.19
2022-10-13T02:35:58.190Z,68.23
2022-10-13T02:38:00.378Z,67.57
2022-10-13T02:40:01.966Z,67.55
2022-10-13T02:42:03.880Z,67.38
2022-10-13T02:44:06.495Z,66.99
2022-10-13T02:46:08.094Z,66.77
2022-10-13T02:48:09.778Z,66.66
2022-10-13T02:50:11.548Z,66.40
2022-10-13T02:52:13.196Z,66.68
2022-10-13T02:54:14.815Z,66.70
2022-10-13T02:56:16.405Z,66.82
2022-10-13T02:58:18.288Z,66.74
2022-10-13T03:00:20.784Z,66.73
2022-10-13T03:02:23.088Z,66.65
2022-10-13T03:04:24.918Z,66.22
2022-10-13T03:06:26.636Z,66.48
2022-10-13T03:08:28.404Z,66.35
2022-10-13T03:10:31.996Z,66.07
2022-10-13T03:12:33.970Z,66.06
2022-10-13T03:14:35.657Z,65.79
2022-10-13T03:16:37.329Z,65.84
2022-10-13T03:18:39.000Z,65.71
2022-10-13T03:20:40.774Z,65.80
2022-10-13T03:22:44.911Z,66.12
2022-10-13T03:24:50.374Z,66.45
2022-10-13T03:26:52.241Z,66.75
2022-10-13T03:28:53.898Z,67.42
2022-10-13T03:31:07.190Z,67.26
2022-10-13T03:33:08.776Z,68.62
2022-10-13T03:35:10.619Z,69.51
2022-10-13T03:37:12.204Z,69.44
2022-10-13T03:39:14.194Z,69.72
2022-10-13T03:41:17.995Z,69.48
2022-10-13T03:43:19.473Z,70.02
2022-10-13T03:45:21.239Z,71.19
2022-10-13T03:47:23.120Z,70.36
2022-10-13T03:49:24.730Z,70.40
2022-10-13T03:51:26.501Z,70.26
2022-10-13T03:53:28.148Z,70.01
2022-10-13T03:55:29.781Z,70.05
2022-10-13T03:57:31.647Z,70.36
2022-10-13T03:59:36.768Z,70.16
2022-10-13T04:01:39.217Z,70.28
2022-10-13T04:03:41.032Z,70.72
2022-10-13T04:05:43.247Z,70.87
2022-10-13T04:07:44.844Z,70.29
2022-10-13T04:09:46.654Z,70.38
2022-10-13T04:11:51.359Z,70.37
2022-10-13T04:13:53.304Z,70.63
2022-10-13T04:15:55.281Z,70.43
2022-10-13T04:17:56.961Z,70.63
2022-10-13T04:19:58.543Z,70.75
2022-10-13T04:22:00.137Z,70.98
2022-10-13T04:24:02.285Z,70.58
2022-10-13T04:26:05.392Z,70.62
2022-10-13T04:28:07.561Z,71.04
2022-10-13T04:30:12.465Z,71.93
2022-10-13T04:32:15.123Z,71.99
2022-10-13T04:34:17.024Z,72.33
2022-10-13T04:36:18.978Z,73.11
2022-10-13T04:38:20.565Z,74.38
2022-10-13T04:40:22.191Z,75.79
2022-10-13T04:42:23.981Z,76.91
2022-10-13T04:44:25.619Z,79.19
2022-10-13T04:46:27.985Z,79.26
2022-10-13T04:48:29.657Z,79.60
2022-10-13T04:50:31.280Z,80.29
2022-10-13T04:52:34.729Z,81.02
2022-10-13T04:54:36.625Z,81.23
2022-10-13T04:56:38.231Z,79.60
2022-10-13T04:58:42.247Z,79.26
2022-10-13T05:00:46.716Z,79.66
2022-10-13T05:02:48.434Z,79.75
2022-10-13T05:04:50.020Z,79.06
2022-10-13T05:07:16.613Z,78.85
2022-10-13T05:09:16.482Z,77.61
2022-10-13T05:11:20.566Z,77.01
2022-10-13T05:13:22.220Z,76.71
2022-10-13T05:15:24.080Z,76.94
2022-10-13T05:17:25.665Z,76.67
2022-10-13T05:19:27.334Z,77.19
2022-10-13T05:21:29.894Z,76.85
2022-10-13T05:23:31.489Z,77.06
2022-10-13T05:25:35.368Z,77.57
2022-10-13T05:27:36.899Z,77.25
2022-10-13T05:29:39.017Z,76.35
2022-10-13T05:31:41.206Z,75.92
2022-10-13T05:33:43.092Z,75.03
2022-10-13T05:35:44.652Z,74.74
2022-10-13T05:37:46.404Z,74.36
2022-10-13T05:39:48.917Z,74.03
2022-10-13T05:41:50.648Z,72.89
2022-10-13T05:43:57.504Z,72.86
2022-10-13T05:46:00.055Z,72.44
2022-10-13T05:48:01.736Z,72.30
2022-10-13T05:50:03.633Z,71.84
2022-10-13T05:52:08.486Z,71.66
2022-10-13T05:54:30.215Z,71.19
2022-10-13T05:56:36.383Z,70.86
2022-10-13T05:58:41.953Z,71.32
2022-10-13T06:00:44.275Z,71.24
2022-10-13T06:03:10.589Z,72.33
2022-10-13T06:05:15.324Z,73.00
2022-10-13T06:07:17.379Z,73.51
2022-10-13T06:09:19.484Z,73.80
2022-10-13T06:11:21.130Z,74.07
2022-10-13T06:13:22.781Z,73.74
2022-10-13T06:15:27.958Z,73.84
2022-10-13T06:17:29.854Z,73.76
2022-10-13T06:19:31.642Z,73.69
2022-10-13T06:21:35.385Z,73.43
2022-10-13T06:23:37.012Z,72.62
2022-10-13T06:25:38.830Z,72.04
2022-10-13T06:27:40.715Z,72.06
2022-10-13T06:29:42.294Z,71.04
2022-10-13T06:31:43.906Z,70.58
2022-10-13T06:33:45.564Z,69.95
2022-10-13T06:35:47.148Z,70.65
2022-10-13T06:37:48.770Z,70.66
2022-10-13T06:39:50.567Z,70.42
2022-10-13T06:41:52.756Z,69.26
2022-10-13T06:43:54.406Z,68.96
2022-10-13T06:46:00.488Z,68.50
2022-10-13T06:48:02.085Z,68.23
2022-10-13T06:50:03.917Z,67.96
2022-10-13T06:52:05.718Z,67.90
2022-10-13T06:54:07.368Z,67.35
2022-10-13T06:56:09.352Z,67.28
2022-10-13T06:58:11.302Z,67.89
2022-10-13T07:00:13.105Z,69.05
2022-10-13T07:02:14.701Z,69.23
2022-10-13T07:04:16.363Z,68.90
2022-10-13T07:06:18.476Z,68.21
2022-10-13T07:08:20.845Z,67.91
2022-10-13T07:10:22.626Z,67.97
2022-10-13T07:12:24.375Z,68.57
2022-10-13T07:14:26.054Z,68.24
2022-10-13T07:16:27.962Z,67.80
2022-10-13T07:18:29.638Z,66.68
2022-10-13T07:20:31.299Z,66.65
2022-10-13T07:22:33.140Z,67.47
2022-10-13T07:24:34.724Z,68.30
2022-10-13T07:26:36.732Z,68.83
2022-10-13T07:28:39.193Z,68.87
2022-10-13T07:30:41.004Z,69.42
2022-10-13T07:32:42.735Z,70.01
2022-10-13T07:34:44.418Z,70.18
2022-10-13T07:36:46.133Z,70.04
2022-10-13T07:38:47.719Z,69.72
2022-10-13T07:40:49.396Z,69.83
2022-10-13T07:42:51.030Z,69.81
2022-10-13T07:44:52.661Z,69.22
2022-10-13T07:46:54.317Z,69.00
2022-10-13T07:48:56.197Z,68.05
2022-10-13T07:50:58.327Z,67.19
2022-10-13T07:53:00.093Z,65.74
2022-10-13T07:55:01.753Z,66.02
2022-10-13T07:57:03.607Z,66.14
2022-10-13T07:59:05.433Z,66.93
2022-10-13T08:01:08.081Z,67.07
2022-10-13T08:03:09.757Z,66.66
2022-10-13T08:05:11.359Z,65.69
2022-10-13T08:07:12.953Z,67.01
2022-10-13T08:09:14.684Z,66.60
2022-10-13T08:11:17.659Z,66.23
2022-10-13T08:13:19.454Z,66.63
2022-10-13T08:15:21.139Z,67.78
2022-10-13T08:17:22.949Z,66.96
2022-10-13T08:19:26.588Z,66.22
2022-10-13T08:23:51.316Z,64.47
2022-10-13T08:25:53.147Z,63.87
2022-10-13T08:28:00.260Z,63.17
2022-10-13T08:30:02.299Z,62.63
2022-10-13T08:32:04.107Z,61.12
2022-10-13T08:34:05.740Z,61.95
2022-10-13T08:36:08.377Z,62.47
2022-10-13T08:38:10.161Z,62.55
2022-10-13T08:40:17.552Z,62.21
2022-10-13T08:42:22.247Z,62.03
2022-10-13T08:46:56.578Z,61.50
2022-10-13T08:49:00.265Z,61.91
2022-10-13T08:51:04.080Z,61.79
2022-10-13T08:53:07.576Z,60.91
2022-10-13T08:55:18.834Z,60.18
2022-10-13T08:57:20.866Z,59.67
2022-10-13T08:59:22.790Z,59.45
2022-10-13T09:01:28.899Z,58.47
2022-10-13T09:03:30.602Z,57.85
2022-10-13T09:05:39.380Z,57.42
2022-10-13T09:07:41.485Z,57.60
2022-10-13T09:09:43.744Z,57.33
2022-10-13T09:11:47.519Z,58.29
2022-10-13T09:13:49.428Z,58.07
2022-10-13T09:15:51.058Z,58.19
2022-10-13T09:18:09.597Z,58.43
2022-10-13T09:20:23.549Z,58.04
2022-10-13T09:22:35.901Z,57.69
2022-10-13T09:24:37.492Z,57.80
2022-10-13T09:26:39.600Z,57.50
2022-10-13T09:28:42.804Z,56.95
2022-10-13T09:30:48.923Z,56.50
2022-10-13T09:32:50.597Z,55.94
2022-10-13T09:34:53.019Z,55.32
2022-10-13T09:36:58.190Z,55.60
2022-10-13T09:39:17.143Z,55.33
2022-10-13T09:41:22.364Z,54.96
2022-10-13T09:43:33.343Z,54.74
2022-10-13T09:45:35.006Z,54.79
2022-10-13T09:47:36.866Z,53.41
2022-10-13T09:49:44.182Z,53.52
2022-10-13T09:51:45.980Z,53.34
2022-10-13T09:53:47.858Z,52.98
2022-10-13T09:55:49.959Z,52.48
2022-10-13T09:57:52.812Z,51.95
2022-10-13T10:00:04.634Z,51.96
2022-10-13T10:02:31.046Z,51.55
2022-10-13T10:04:36.594Z,51.78
2022-10-13T10:06:39.210Z,51.79
2022-10-13T10:09:02.865Z,51.64
2022-10-13T10:11:08.696Z,51.69
2022-10-13T10:13:14.783Z,50.89
2022-10-13T10:15:25.265Z,51.19
2022-10-13T10:17:38.056Z,51.26
2022-10-13T10:19:46.957Z,51.00
2022-10-13T10:22:04.086Z,50.57
2022-10-13T10:24:15.637Z,50.27
2022-10-13T10:26:32.937Z,50.09
2022-10-13T10:28:49.832Z,49.58
2022-10-13T10:31:00.322Z,49.18
2022-10-13T10:33:21.306Z,49.32
2022-10-13T10:35:44.562Z,49.34
2022-10-13T10:38:07.252Z,49.31
2022-10-13T10:40:30.943Z,48.94
2022-10-13T10:42:53.911Z,49.20
2022-10-13T10:44:56.240Z,49.69
2022-10-13T10:47:02.974Z,49.70
2022-10-13T10:49:20.378Z,49.63
2022-10-13T10:51:31.450Z,49.53
2022-10-13T10:53:45.650Z,49.26
2022-10-13T10:55:57.286Z,49.94
2022-10-13T10:58:05.281Z,50.12
2022-10-13T11:00:14.430Z,49.47
2022-10-13T11:02:34.191Z,49.63
2022-10-13T11:04:43.073Z,49.42
2022-10-13T11:06:44.754Z,49.56
2022-10-13T11:09:05.348Z,49.71
2022-10-13T11:11:36.437Z,49.07
2022-10-13T11:14:07.305Z,49.04
2022-10-13T11:16:38.390Z,48.98
2022-10-13T11:19:06.652Z,49.19
2022-10-13T11:21:08.366Z,49.19
2022-10-13T11:23:12.837Z,48.85
2022-10-13T11:25:40.231Z,49.29
2022-10-13T11:27:42.868Z,49.09
2022-10-13T11:29:44.633Z,48.42
2022-10-13T11:31:54.610Z,48.50
2022-10-13T11:34:01.669Z,48.65
2022-10-13T11:36:31.448Z,48.52
2022-10-13T11:38:36.409Z,48.29
2022-10-13T11:41:02.524Z,47.99
2022-10-13T11:43:13.053Z,48.04
2022-10-13T11:45:25.686Z,48.26
2022-10-13T11:47:42.569Z,48.09
2022-10-13T11:50:23.024Z,47.98
2022-10-13T11:52:48.006Z,47.54
2022-10-13T11:54:57.664Z,47.63
2022-10-13T11:56:59.235Z,47.32
2022-10-13T11:59:01.064Z,47.17
2022-10-13T12:01:11.185Z,47.54
2022-10-13T12:03:21.496Z,47.46
2022-10-13T12:05:26.553Z,47.35
2022-10-13T12:07:32.914Z,47.06
2022-10-13T12:09:36.916Z,47.10
2022-10-13T12:11:39.093Z,47.44
2022-10-13T12:13:46.418Z,47.56
2022-10-13T12:15:48.103Z,46.39
2022-10-13T12:17:49.821Z,47.32
2022-10-13T12:19:54.833Z,47.48
2022-10-13T12:22:00.040Z,48.10
2022-10-13T12:24:13.602Z,47.56
2022-10-13T12:26:20.438Z,47.54
2022-10-13T12:28:22.519Z,47.49
2022-10-13T12:30:28.071Z,47.83
2022-10-13T12:32:31.684Z,48.15
2022-10-13T12:34:35.163Z,48.54
2022-10-13T12:36:36.797Z,48.65
2022-10-13T12:38:38.965Z,48.19
2022-10-13T12:40:40.874Z,48.57
2022-10-13T12:42:42.939Z,48.64
2022-10-13T12:44:44.940Z,48.78
2022-10-13T12:46:56.315Z,48.84
2022-10-13T12:49:05.327Z,48.66
2022-10-13T12:51:17.216Z,48.40
2022-10-13T12:53:29.029Z,48.30
2022-10-13T12:55:31.471Z,47.79
2022-10-13T12:57:37.534Z,48.06
2022-10-13T12:59:41.999Z,47.99
2022-10-13T13:01:44.127Z,47.31
2022-10-13T13:03:45.751Z,46.82
2022-10-13T13:05:52.326Z,46.14
2022-10-13T13:07:55.865Z,45.38
2022-10-13T13:10:13.876Z,44.63
2022-10-13T13:12:23.514Z,44.25
2022-10-13T13:14:38.548Z,44.68
2022-10-13T13:16:40.169Z,45.03
2022-10-13T13:18:43.941Z,45.36
2022-10-13T13:20:45.545Z,45.52
2022-10-13T13:22:47.417Z,45.44
2022-10-13T13:24:52.198Z,45.72
2022-10-13T13:26:53.796Z,46.05
2022-10-13T13:28:56.315Z,46.07
2022-10-13T13:30:58.910Z,45.90
2022-10-13T13:33:00.541Z,45.92
2022-10-13T13:35:02.168Z,46.39
2022-10-13T13:37:04.051Z,46.63
2022-10-13T13:39:06.780Z,47.02
2022-10-13T13:41:10.654Z,47.35
2022-10-13T13:43:12.486Z,47.06
2022-10-13T13:45:15.246Z,47.06
2022-10-13T13:47:22.423Z,46.88
2022-10-13T13:49:24.385Z,46.83
2022-10-13T13:51:25.997Z,47.42
2022-10-13T13:53:27.765Z,47.28
2022-10-13T13:55:30.218Z,47.36
2022-10-13T13:57:31.782Z,47.33
2022-10-13T13:59:33.603Z,47.62
2022-10-13T14:01:35.373Z,47.68
2022-10-13T14:03:37.054Z,48.08
2022-10-13T14:05:40.079Z,48.31
2022-10-13T14:07:42.243Z,48.27
2022-10-13T14:09:43.789Z,48.07
2022-10-13T14:11:45.434Z,48.20
2022-10-13T14:13:47.265Z,48.28
2022-10-13T14:15:59.813Z,48.57
2022-10-13T14:18:01.470Z,48.69
2022-10-13T14:20:03.229Z,48.95
2022-10-13T14:22:09.332Z,49.18
2022-10-13T14:24:11.245Z,48.95
2022-10-13T14:26:13.858Z,49.01
2022-10-13T14:28:18.244Z,49.19
2022-10-13T14:30:20.305Z,48.97
2022-10-13T14:32:22.595Z,49.02
2022-10-13T14:34:24.714Z,49.10
2022-10-13T14:36:26.321Z,49.18
2022-10-13T14:38:28.336Z,49.13
2022-10-13T14:40:29.944Z,49.21
2022-10-13T14:42:31.585Z,48.82
2022-10-13T14:44:33.161Z,49.42
2022-10-13T14:46:34.891Z,48.77
2022-10-13T14:48:37.471Z,48.86
2022-10-13T14:50:39.050Z,49.02
2022-10-13T14:52:40.729Z,49.49
2022-10-13T14:54:44.861Z,49.45
2022-10-13T14:56:46.795Z,49.50
2022-10-13T14:58:50.043Z,49.74
2022-10-13T15:00:53.581Z,50.02
2022-10-13T15:02:55.193Z,49.84
2022-10-13T15:04:57.951Z,50.00
2022-10-13T15:06:59.634Z,51.47
2022-10-13T15:09:01.426Z,52.16
2022-10-13T15:11:04.197Z,53.30
2022-10-13T15:13:05.775Z,53.69
2022-10-13T15:15:07.772Z,54.05
2022-10-13T15:17:09.582Z,54.82
2022-10-13T15:19:11.413Z,55.09
2022-10-13T15:21:13.142Z,55.51
2022-10-13T15:23:15.929Z,55.52
2022-10-13T15:25:17.636Z,56.20
2022-10-13T15:27:19.230Z,55.99
2022-10-13T15:29:21.340Z,55.93
2022-10-13T15:31:23.621Z,56.16
2022-10-13T15:33:25.310Z,56.07
2022-10-13T15:35:31.329Z,56.16
2022-10-13T15:37:32.921Z,56.41
2022-10-13T15:39:34.974Z,56.61
2022-10-13T15:41:36.709Z,56.67
2022-10-13T15:43:39.054Z,56.80
2022-10-13T15:45:40.917Z,56.82
2022-10-13T15:47:42.587Z,56.68
2022-10-13T15:49:44.194Z,56.58
2022-10-13T15:51:46.307Z,56.15
2022-10-13T15:53:48.457Z,55.78
2022-10-13T15:55:50.177Z,56.21
2022-10-13T15:57:51.918Z,55.97
2022-10-13T15:59:53.556Z,56.14
2022-10-13T16:01:55.136Z,56.15
2022-10-13T16:03:56.919Z,56.03
2022-10-13T16:05:58.698Z,56.14
2022-10-13T16:08:00.253Z,56.01
2022-10-13T16:10:02.100Z,55.96
2022-10-13T16:12:03.790Z,55.77
2022-10-13T16:14:05.408Z,55.75
2022-10-13T16:16:07.928Z,55.67
2022-10-13T16:18:09.568Z,56.01
2022-10-13T16:20:11.761Z,55.69
2022-10-13T16:22:13.670Z,55.76
2022-10-13T16:24:15.342Z,56.13
2022-10-13T16:26:17.812Z,56.00
2022-10-13T16:28:19.568Z,56.00
2022-10-13T16:30:21.272Z,55.80
2022-10-13T16:32:23.124Z,55.84
2022-10-13T16:34:24.971Z,56.21
2022-10-13T16:36:26.615Z,55.71
2022-10-13T16:38:28.446Z,55.66
2022-10-13T16:40:30.759Z,55.70
2022-10-13T16:42:32.584Z,55.75
2022-10-13T16:44:34.249Z,55.73
2022-10-13T16:46:36.190Z,55.83
2022-10-13T16:48:37.894Z,55.94
2022-10-13T16:50:39.484Z,55.98
2022-10-13T16:52:41.048Z,56.05
2022-10-13T16:54:42.808Z,55.88
2022-10-13T16:56:44.513Z,56.07
2022-10-13T16:58:46.143Z,55.93
2022-10-13T17:00:48.042Z,56.04
2022-10-13T17:02:49.696Z,56.00
2022-10-13T17:04:51.346Z,56.10
2022-10-13T17:06:53.023Z,56.10
2022-10-13T17:08:58.707Z,56.04
2022-10-13T17:11:00.826Z,56.20
2022-10-13T17:13:02.473Z,56.18
2022-10-13T17:15:04.558Z,56.26
2022-10-13T17:17:06.145Z,56.11
2022-10-13T17:19:08.127Z,56.65
2022-10-13T17:21:13.584Z,56.95
2022-10-13T17:23:17.003Z,56.64
2022-10-13T17:25:18.659Z,56.65
2022-10-13T17:27:20.566Z,56.43
2022-10-13T17:29:22.367Z,56.69
2022-10-13T17:31:24.521Z,56.77
2022-10-13T17:33:27.664Z,57.06
2022-10-13T17:35:31.315Z,57.11
2022-10-13T17:37:32.784Z,57.19
2022-10-13T17:39:34.412Z,57.28
2022-10-13T17:41:36.289Z,57.55
2022-10-13T17:43:39.242Z,57.47
2022-10-13T17:45:40.926Z,57.54
2022-10-13T17:47:49.619Z,57.43
2022-10-13T17:49:51.283Z,57.46
2022-10-13T17:51:54.317Z,57.71
2022-10-13T17:53:58.726Z,57.35
2022-10-13T17:56:07.932Z,57.57
2022-10-13T17:58:09.792Z,57.72
2022-10-13T18:00:12.171Z,57.74
2022-10-13T18:02:13.881Z,57.53
2022-10-13T18:04:17.906Z,57.60
2022-10-13T18:06:20.119Z,57.35
2022-10-13T18:08:21.704Z,57.50
2022-10-13T18:10:23.344Z,57.29
2022-10-13T18:12:25.130Z,57.29
2022-10-13T18:14:26.792Z,57.05
2022-10-13T18:16:28.472Z,57.14
2022-10-13T18:18:30.180Z,57.50
2022-10-13T18:20:32.359Z,57.28
2022-10-13T18:22:34.312Z,57.38
2022-10-13T18:24:35.956Z,57.04
2022-10-13T18:26:37.863Z,56.99
2022-10-13T18:28:40.543Z,57.06
2022-10-13T18:30:42.400Z,56.85
2022-10-13T18:32:44.046Z,56.98
2022-10-13T18:34:45.645Z,56.54
2022-10-13T18:36:50.541Z,56.69
2022-10-13T18:38:56.785Z,56.50
2022-10-13T18:40:59.514Z,56.46
2022-10-13T18:43:01.218Z,56.32
2022-10-13T18:45:03.099Z,56.08
2022-10-13T18:47:04.881Z,56.02
2022-10-13T18:49:08.276Z,55.86
2022-10-13T18:51:12.321Z,56.02
2022-10-13T18:53:14.165Z,56.16
2022-10-13T18:55:15.859Z,56.12
2022-10-13T18:57:17.435Z,55.98
2022-10-13T18:59:19.137Z,55.69
2022-10-13T19:01:23.105Z,56.10
2022-10-13T19:03:24.759Z,55.69
2022-10-13T19:05:26.434Z,55.88
2022-10-13T19:07:28.114Z,55.72
2022-10-13T19:09:30.289Z,55.79
2022-10-13T19:11:32.574Z,55.75
2022-10-13T19:13:34.289Z,55.65
2022-10-13T19:15:35.867Z,55.27
2022-10-13T19:17:37.628Z,55.36
2022-10-13T19:19:40.817Z,54.79
2022-10-13T19:21:42.603Z,54.87
2022-10-13T19:23:44.302Z,54.80
2022-10-13T19:25:45.889Z,55.01
2022-10-13T19:27:47.527Z,55.02
2022-10-13T19:29:52.308Z,54.29
2022-10-13T19:31:53.948Z,54.67
2022-10-13T19:33:55.933Z,54.90
2022-10-13T19:35:57.754Z,54.78
2022-10-13T19:37:59.388Z,54.98
2022-10-13T19:40:00.953Z,55.11
2022-10-13T19:42:02.802Z,54.72
2022-10-13T19:44:04.535Z,54.76
2022-10-13T19:46:07.176Z,54.75
2022-10-13T19:48:08.885Z,54.87
2022-10-13T19:50:10.805Z,55.01
2022-10-13T19:52:12.362Z,55.22
2022-10-13T19:54:14.696Z,55.05
2022-10-13T19:56:27.881Z,55.34
2022-10-13T19:58:30.253Z,55.63
2022-10-13T20:00:32.022Z,55.87
2022-10-13T20:02:34.154Z,56.09
2022-10-13T20:04:35.826Z,56.19
2022-10-13T20:06:37.843Z,55.94
2022-10-13T20:08:39.697Z,55.97
2022-10-13T20:10:42.929Z,55.87
2022-10-13T20:12:44.556Z,55.75
2022-10-13T20:14:46.360Z,55.86
2022-10-13T20:16:48.614Z,56.03
2022-10-13T20:18:55.631Z,56.20
2022-10-13T20:20:57.710Z,56.26
2022-10-13T20:22:59.304Z,56.29
2022-10-13T20:25:00.910Z,56.31
2022-10-13T20:27:02.961Z,56.13
2022-10-13T20:29:04.804Z,56.04
2022-10-13T20:31:06.505Z,55.75
2022-10-13T20:33:10.253Z,55.93
2022-10-13T20:35:11.781Z,56.01
2022-10-13T20:37:13.402Z,56.24
2022-10-13T20:39:15.213Z,56.42
2022-10-13T20:41:24.924Z,56.42
2022-10-13T20:43:26.519Z,56.48
2022-10-13T20:45:28.215Z,56.76
2022-10-13T20:47:29.975Z,56.71
2022-10-13T20:49:31.633Z,56.63
2022-10-13T20:51:33.241Z,56.71
2022-10-13T20:53:36.264Z,56.71
2022-10-13T20:55:41.742Z,57.07
2022-10-13T20:57:43.842Z,57.28
2022-10-13T20:59:45.441Z,57.27
2022-10-13T21:01:47.023Z,57.81
2022-10-13T21:03:53.425Z,57.44
2022-10-13T21:05:55.419Z,57.51
2022-10-13T21:07:57.266Z,57.44
2022-10-13T21:09:58.925Z,57.65
2022-10-13T21:12:00.714Z,57.81
2022-10-13T21:14:06.858Z,57.67
2022-10-13T21:16:10.657Z,57.22
2022-10-13T21:18:12.490Z,57.37
2022-10-13T21:20:14.266Z,57.35
2022-10-13T21:22:15.866Z,57.56
2022-10-13T21:24:17.452Z,57.60
2022-10-13T21:26:21.901Z,57.81
2022-10-13T21:28:23.893Z,57.79
2022-10-13T21:30:25.643Z,57.75
2022-10-13T21:32:30.001Z,57.63
2022-10-13T21:34:31.698Z,57.47
2022-10-13T21:36:33.906Z,57.55
2022-10-13T21:38:35.990Z,57.30
2022-10-13T21:40:38.154Z,57.20
2022-10-13T21:42:39.967Z,57.01
2022-10-13T21:44:41.874Z,56.90
2022-10-13T21:46:43.536Z,56.50
2022-10-13T21:48:46.360Z,56.63
2022-10-13T21:50:48.103Z,56.44
2022-10-13T21:52:49.664Z,56.76
2022-10-13T21:54:51.553Z,56.50
2022-10-13T21:56:53.243Z,56.65
2022-10-13T21:58:56.061Z,56.66
2022-10-13T22:01:00.477Z,56.55
2022-10-13T22:03:02.216Z,56.65
2022-10-13T22:05:04.176Z,56.49
2022-10-13T22:07:06.214Z,56.57
2022-10-13T22:09:09.008Z,56.21
2022-10-13T22:11:12.633Z,56.48
2022-10-13T22:13:14.243Z,56.11
2022-10-13T22:15:16.019Z,55.73
2022-10-13T22:17:17.839Z,56.30
2022-10-13T22:19:22.641Z,55.74
2022-10-13T22:21:27.349Z,55.49
2022-10-13T22:23:29.469Z,55.63
2022-10-13T22:25:31.088Z,55.17
2022-10-13T22:27:32.724Z,55.06
2022-10-13T22:29:34.426Z,54.56
2022-10-13T22:31:36.222Z,54.61
2022-10-13T22:33:39.634Z,54.27
2022-10-13T22:35:41.478Z,54.51
2022-10-13T22:37:43.260Z,53.82
2022-10-13T22:39:44.989Z,53.51
2022-10-13T22:41:46.663Z,53.24
2022-10-13T22:43:56.113Z,52.96
2022-10-13T22:45:57.718Z,52.61
2022-10-13T22:47:59.379Z,52.36
2022-10-13T22:50:01.029Z,52.22
2022-10-13T22:52:02.608Z,52.11
2022-10-13T22:54:04.717Z,51.81
2022-10-13T22:56:12.072Z,51.78
2022-10-13T22:58:13.765Z,51.49
2022-10-13T23:00:16.141Z,51.06
2022-10-13T23:02:17.827Z,51.16
2022-10-13T23:04:19.461Z,51.06
2022-10-13T23:06:23.620Z,50.53
2022-10-13T23:08:25.785Z,50.51
2022-10-13T23:10:27.427Z,50.24
2022-10-13T23:12:29.088Z,50.27
2022-10-13T23:14:30.698Z,49.95
2022-10-13T23:16:32.384Z,50.00
2022-10-13T23:18:34.460Z,50.06
2022-10-13T23:20:39.983Z,50.23
2022-10-13T23:22:41.647Z,50.45
2022-10-13T23:24:43.265Z,50.91
2022-10-13T23:26:45.049Z,50.94
2022-10-13T23:28:46.730Z,51.38
2022-10-13T23:30:48.375Z,51.69
2022-10-13T23:32:50.035Z,51.62
2022-10-13T23:34:51.640Z,51.54
2022-10-13T23:36:53.329Z,51.62
2022-10-13T23:38:59.346Z,51.98
2022-10-13T23:41:08.911Z,51.40
2022-10-13T23:43:10.529Z,52.00
2022-10-13T23:45:12.158Z,52.29
2022-10-13T23:47:14.029Z,52.16
2022-10-13T23:49:15.736Z,52.07
2022-10-13T23:51:23.217Z,51.89
2022-10-13T23:53:25.084Z,52.41
2022-10-13T23:55:26.900Z,52.63
2022-10-13T23:57:29.994Z,52.00
2022-10-13T23:59:31.720Z,52.09
